TAF Text Data
IDs:
Format:
Raw Decoded Include METAR

Data at: 0538 UTC 18 Oct 2018

KTYS 180453Z COR 01005KT 10SM SCT130 OVC250 13/08 A3035 RMK AO2 SLP274 T01280078 402000106

KTYS 180520Z 1806/1906 03007KT P6SM BKN250
  FM190000 03003KT P6SM SCT250


KGSO 180454Z 30005KT 10SM FEW150 BKN250 12/06 A3026 RMK AO2 SLP243 T01220056 402280111

KGSO 180530Z 1806/1906 34006KT P6SM BKN250
  FM181500 04006KT P6SM FEW250
  FM190200 00000KT P6SM SKC


KCLT 180452Z 35006KT 10SM BKN250 12/08 A3026 RMK AO2 SLP243 T01170083 402440117

KCLT 180520Z 1806/1912 35005KT P6SM FEW150 BKN250
  FM181100 04010KT P6SM FEW250
  FM182200 06004KT P6SM SCT250


KRDU 180451Z VRB04KT 10SM FEW150 BKN250 14/06 A3026 RMK AO2 SLP243 T01440056 402170117

KRDU 180530Z 1806/1906 34006KT P6SM BKN250
  FM181500 04006KT P6SM FEW250
  FM190200 00000KT P6SM SKC


KPOB 180456Z AUTO 03003KT 10SM CLR 15/08 A3024 RMK AO2 SLP242 T01500082 402400147 $

TAF KPOB 180100Z 1801/1907 35006KT 9999 FEW250 QNH3014INS
  BECMG 1814/1815 04010G15KT 9999 SKC QNH3025INS
  BECMG 1820/1821 06006KT 9999 SKC QNH3034INS TX19/1820Z TN08/1811Z


KFBG 180456Z AUTO 34005KT 10SM CLR 14/08 A3023 RMK AO2 SLP239 T01430080 402420140 $

TAF KFBG 180100Z 1801/1907 35006KT 9999 FEW250 QNH3014INS
  BECMG 1814/1815 04012G18KT 9999 SKC QNH3025INS
  BECMG 1820/1821 06006KT 9999 SKC QNH3034INS TX19/1820Z TN08/1811Z


KFAY 180453Z 35010KT 10SM CLR 16/08 A3023 RMK AO2 SLP231 T01560078 402560150

KFAY 180530Z 1806/1906 36006KT P6SM SCT250
  FM181500 04010KT P6SM SKC
  FM190000 VRB04KT P6SM FEW250


KRWI 180453Z AUTO 30003KT 10SM CLR 13/08 A3023 RMK AO2 SLP237 T01280083 402170100

KRWI 180530Z 1806/1906 33005KT P6SM BKN250
  FM181500 03010KT P6SM FEW250
  FM182200 VRB04KT P6SM SKC


KISO 180520Z AUTO 33003KT 10SM CLR 13/09 A3024 RMK AO2 T01300086

KISO 172327Z 1800/1824 VRB02KT P6SM BKN250
  FM180500 33006KT P6SM FEW250
  FM181300 02012G18KT P6SM SKC AMD LTD TO CLD VIS AND WIND


KGWW 180520Z AUTO 31003KT 10SM CLR 12/08 A3024 RMK AO2 T01230084


KGSB 180456Z AUTO 29004KT 10SM CLR 15/08 A3021 RMK AO2 SLP233 T01510081 402250139 $

TAF AMD KGSB 180432Z 1804/1910 32006KT 9999 BKN120 QNH3016INS
  BECMG 1814/1815 03010G15KT 9999 FEW030 FEW250 QNH3035INS
  BECMG 1820/1821 03007KT 9999 SKC QNH3036INS TX18/1819Z TN08/1903Z


KDPL 180520Z AUTO 34009KT 10SM CLR 15/08 A3023 RMK AO2


KCTZ 180520Z AUTO 36003KT 10SM CLR 15/12 A3024 RMK AO2 T01520118


KORF 180451Z 35012G19KT 10SM CLR 18/06 A3019 RMK AO2 SLP224 T01780061 402220139

KORF 180413Z 1804/1824 33010KT P6SM SKC
  FM180500 34012G20KT P6SM SKC
  FM181000 02012G20KT P6SM SCT040


KLFI 180456Z AUTO 35014G18KT 10SM CLR 15/05 A3021 RMK AO2 SLP237 T01520054 402140123

TAF KLFI 180100Z 1801/1907 24009KT 9999 FEW040 QNH3002INS
  BECMG 1811/1812 35015G25KT 9999 FEW100 510043 QNH3025INS
  BECMG 1814/1815 35012G18KT 9999 SKC QNH3034INS
  BECMG 1817/1818 35009KT 9999 SKC QNH3038INS TX19/1801Z TN10/1812Z


KNTU 180456Z 36007KT 10SM FEW300 14/10 A3018 RMK AO2 SLP223 T01390100 402110094

TAF KNTU 1723/1823 27007KT FEW300 QNH3005INS
  FM180300 30012G20KT 9999 FEW300 QNH3008INS
  FM180700 35015G24KT 9999 SKC QNH3012INS
  FM181200 34012KT 9999 SKC QNH3030INS T10/1810Z T16/1819Z FN20051


KECG 180454Z 29009KT 10SM CLR 11/08 A3019 RMK AO2 SLP223 T01110083 402280111

KECG 172320Z 1800/1824 27009KT P6SM SKC
  FM180600 34012KT P6SM SKC
  FM182100 01011KT P6SM SKC


KEWN 180454Z AUTO 32004KT 3SM BR CLR 13/13 A3022 RMK AO2 SLP232 T01330133 402440133 $

KEWN 180424Z 1804/1824 VRB02KT P6SM SCT250
  TEMPO 1804/1806 3SM BR VV007
  FM180600 34007KT P6SM SKC
  FM181100 36011G21KT P6SM SKC


KNKT 180454Z AUTO 00000KT 10SM CLR 14/14 A3022 RMK AO2 SLP228 T01440144 402560133

TAF KNKT 1803/1903 02005KT 9999 SKC QNH3022INS
  BECMG 1806/1808 01005KT 9999 FEW200 QNH3028INS
  BECMG 1821/1823 02005KT 9999 SCT020 BKN035 QNH3037INS T17/1818Z T10/1903Z


KILM 180453Z AUTO 02003KT 10SM FEW055 18/16 A3021 RMK AO2 SLP228 T01830161 402610183

KILM 180522Z 1806/1906 36007KT P6SM FEW060
  FM180900 03009KT P6SM SKC
  FM190000 VRB03KT P6SM SKC


KCAE 180456Z VRB06KT 10SM BKN035 BKN150 19/09 A3023 RMK AO2 SLP233 T01940094 403000194

KCAE 180530Z 1806/1906 01006KT P6SM SCT035 BKN200
  FM181500 05010KT P6SM SCT250
  FM182300 06004KT P6SM SCT250


KSSC 180456Z AUTO 02007KT 10SM SCT044 18/09 A3022 RMK AO2 SLP233 T01820085 402860181 $

TAF KSSC 172300Z 1723/1905 36009KT 9999 SCT050 SCT080 BKN220 QNH3010INS
  BECMG 1802/1803 02006KT 9999 FEW050 BKN200 QNH3016INS
  BECMG 1814/1815 05012G18KT 9999 BKN200 QNH3030INS
  BECMG 1818/1819 04009KT 9999 SCT200 QNH3033INS TX27/1723Z TN12/1812Z


KMMT 180456Z AUTO 02005KT 10SM FEW044 19/09 A3023 RMK AO2 SLP238 T01880090 402920185 $

TAF KMMT 172300Z 1723/1905 36009KT 9999 SCT050 SCT080 BKN220 QNH3012INS
  BECMG 1802/1803 02006KT 9999 FEW050 BKN200 QNH3016INS
  BECMG 1814/1815 05012G18KT 9999 BKN200 QNH3030INS
  BECMG 1818/1819 04009KT 9999 SCT200 QNH3033INS TX27/1723Z TN12/1812Z


KMYR 180456Z AUTO 03007KT 10SM FEW042 22/19 A3021 RMK AO2 SLP230 T02170194 402780217

KMYR 180522Z 1806/1906 36010KT P6SM BKN050
  FM180900 03012KT P6SM SKC
  FM190000 04006KT P6SM BKN250


KCHS 180456Z 02006KT 10SM BKN095 23/20 A3018 RMK AO2 SLP219 T02330200 403220228

KCHS 180534Z 1806/1906 02010KT P6SM SCT025 BKN090
  FM181400 05012G18KT P6SM BKN040
  FM181900 05009KT P6SM BKN040


KSAV 180453Z AUTO 36003KT 10SM CLR 23/19 A3019 RMK AO2 SLP224 T02280194 403220228

KSAV 180534Z 1806/1906 01008KT P6SM SCT080
  FM181400 05011G17KT P6SM BKN040
  FM181900 06009KT P6SM BKN035


KSVN 180456Z 36006KT 10SM CLR 24/19 A3016 RMK AO2A SLP216 T02380193 403240235 FZRANO $

TAF KSVN 180400Z 1804/1910 36006KT 9999 SCT040 QNH3015INS
  BECMG 1814/1815 05010G15KT 9999 BKN030 QNH3030INS
  BECMG 1822/1823 04009KT 9999 BKN025 QNH3029INS
  BECMG 1907/1908 03006KT 9999 OVC020 QNH3031INS TX25/1804Z TN17/1902Z


KDCA 180452Z 35010KT 10SM SCT080 13/03 A3026 RMK AO2 SLP246 T01280028 402110117 $

KDCA 180537Z 1806/1912 35010KT P6SM SCT080
  FM181300 33010G20KT P6SM FEW080
  FM182200 33004KT P6SM SKC


KADW 180456Z AUTO 34011KT 10SM CLR 12/02 A3024 RMK AO2 SLP247 T01180020 401950109 $

TAF AMD KADW 180133Z 1801/1907 28009KT 9999 FEW050 QNH3000INS
  TEMPO 1801/1805 33015G25KT
  BECMG 1814/1815 33012G18KT 9999 SCT035 QNH3038INS
  BECMG 1820/1821 33006KT 9999 SKC QNH3038INS TX15/1801Z TN05/1812Z